»·PEaware :: N6210F KAJO-KVCV

N6210F :: KAJO-KVCV

FLIGHT INFORMATION

Flight Status: Arrived
Operator: Privately registered:
United States
More flights under this callsign
Pilot: Pablo H. (9636)
Aircraft: CESSNA 172 SKYHAWK
(C172)
More flights by this aircraft type
Origin: KAJO Corona Mun
United States
Destination: KVCV Socal Logistics
United States
More flights between these airports :: More routes between these airports
Route: PDZ V442 APLES
File this flight plan on PilotEdge
Remarks:
Altitude:
(Current/Filed)
9,000ft
Speed:
(Current/Filed)
120kts
Departed: 12-Nov-20 05:21 PM
Arrived: 12-Nov-20 06:10 PM
Distance/Time
Traveled:
44nm/0:48
Distance/Time
To Go:
Arrived

Flight Plot

Page will automatically refresh every two minutes.


Map Options




Map Legend


Flown Route
Filed Route
Departure Airport
Arrival Airport
Navaid (VOR, NDB)
Fix

Horizontal Profiles

Position Reports

Time Latitude Longitude Heading Altitude Ground
Speed
12-Nov-20 17:12 33.896279 -117.598440 273 537ft 0kts
12-Nov-20 17:13 33.896279 -117.598440 273 537ft 0kts
12-Nov-20 17:14 33.896201 -117.598229 3 537ft 11kts
12-Nov-20 17:15 33.897369 -117.597549 2 537ft 0kts
12-Nov-20 17:16 33.897369 -117.597549 2 537ft 0kts
12-Nov-20 17:17 33.897369 -117.597549 2 537ft 0kts
12-Nov-20 17:18 33.897736 -117.597629 272 537ft 0kts
12-Nov-20 17:19 33.897736 -117.597629 272 537ft 0kts
12-Nov-20 17:20 33.896806 -117.614557 269 995ft 73kts
12-Nov-20 17:21 33.907946 -117.625419 48 1846ft 72kts
12-Nov-20 17:22 33.911544 -117.600689 81 2613ft 79kts
12-Nov-20 17:23 33.914279 -117.573977 80 3382ft 81kts
12-Nov-20 17:24 33.916916 -117.546738 80 4099ft 83kts
12-Nov-20 17:25 33.922741 -117.520065 69 4863ft 85kts
12-Nov-20 17:26 33.932594 -117.495513 6 5595ft 81kts
12-Nov-20 17:27 33.934335 -117.513519 224 6298ft 82kts
12-Nov-20 17:28 33.916728 -117.530971 251 6974ft 80kts
12-Nov-20 17:29 33.931308 -117.536065 36 7605ft 89kts
12-Nov-20 17:30 33.948577 -117.513977 24 8203ft 90kts
12-Nov-20 17:31 33.970875 -117.499400 21 8767ft 92kts
12-Nov-20 17:32 33.993143 -117.485687 21 9047ft 116kts
12-Nov-20 17:33 34.018909 -117.469959 22 9049ft 132kts
12-Nov-20 17:34 34.047208 -117.452825 22 9055ft 135kts
12-Nov-20 17:35 34.076816 -117.434983 22 9061ft 135kts
12-Nov-20 17:36 34.106896 -117.416880 22 9063ft 136kts
12-Nov-20 17:37 34.136773 -117.398860 21 9064ft 136kts
12-Nov-20 17:38 34.166380 -117.381004 21 9066ft 136kts
12-Nov-20 17:39 34.197481 -117.362267 21 9001ft 140kts
12-Nov-20 17:40 34.229966 -117.342647 22 8971ft 135kts
12-Nov-20 17:41 34.263669 -117.322294 22 8974ft 134kts
12-Nov-20 17:42 34.297046 -117.302114 22 8979ft 134kts
12-Nov-20 17:43 34.329151 -117.279059 38 8964ft 136kts
12-Nov-20 17:44 34.359979 -117.255549 20 9045ft 129kts
12-Nov-20 17:45 34.394012 -117.239153 21 9007ft 133kts
12-Nov-20 17:46 34.427437 -117.220015 20 8980ft 135kts
12-Nov-20 17:47 34.459816 -117.199190 23 9023ft 132kts
12-Nov-20 17:48 34.492545 -117.179991 22 8982ft 128kts
12-Nov-20 17:49 34.523642 -117.161166 16 8963ft 123kts
12-Nov-20 17:50 34.555837 -117.148677 16 8396ft 121kts
12-Nov-20 17:51 34.587500 -117.141094 2 7799ft 114kts
12-Nov-20 17:52 34.617512 -117.145518 346 7279ft 108kts
12-Nov-20 17:53 34.646892 -117.153263 345 6704ft 109kts
12-Nov-20 17:54 34.673049 -117.166171 317 6646ft 96kts
12-Nov-20 17:55 34.696608 -117.182854 333 6626ft 99kts
12-Nov-20 17:57 34.719714 -117.199651 328 6659ft 98kts
12-Nov-20 17:58 34.742879 -117.218233 317 6578ft 101kts
12-Nov-20 17:59 34.759434 -117.245054 300 6610ft 96kts
12-Nov-20 18:00 34.772267 -117.274278 303 6625ft 99kts
12-Nov-20 18:01 34.783154 -117.306733 283 6274ft 114kts
12-Nov-20 18:02 34.791460 -117.343166 283 5854ft 113kts
12-Nov-20 18:03 34.781659 -117.373209 195 5350ft 111kts
12-Nov-20 18:04 34.750998 -117.376125 185 4719ft 108kts
12-Nov-20 18:05 34.723189 -117.379828 181 4317ft 96kts
12-Nov-20 18:06 34.697090 -117.380507 183 4406ft 97kts
12-Nov-20 18:07 34.669961 -117.383742 181 3818ft 99kts
12-Nov-20 18:08 34.643003 -117.385656 181 3337ft 95kts
12-Nov-20 18:09 34.619339 -117.386807 180 2816ft 48kts
12-Nov-20 18:10 34.616122 -117.385482 105 2820ft 0kts
12-Nov-20 18:11 34.616122 -117.385482 105 2820ft 0kts
12-Nov-20 18:12 34.616122 -117.385482 105 2820ft 0kts
12-Nov-20 18:13 34.616122 -117.385482 105 2820ft 0kts

Navigation Log

Ident Type
Flight plan parsing failed, navigation log unavailable